createdAt,value
2023-09-08T00:01:20.799Z,94.26
2023-09-08T00:06:28.546Z,94.44
2023-09-08T00:11:36.380Z,94.62
2023-09-08T00:16:45.186Z,93.74
2023-09-08T00:21:52.935Z,93.60
2023-09-08T00:27:00.667Z,93.74
2023-09-08T00:32:09.266Z,93.75
2023-09-08T00:37:17.038Z,96.11
2023-09-08T00:42:24.773Z,98.31
2023-09-08T00:47:33.023Z,97.17
2023-09-08T00:52:41.245Z,97.29
2023-09-08T00:57:49.044Z,98.03
2023-09-08T01:02:56.971Z,97.88
2023-09-08T01:08:05.931Z,96.37
2023-09-08T01:13:13.747Z,95.51
2023-09-08T01:18:21.997Z,95.82
2023-09-08T01:23:44.409Z,95.08
2023-09-08T01:28:54.235Z,95.37
2023-09-08T01:34:05.795Z,94.99
2023-09-08T01:39:13.548Z,94.73
2023-09-08T01:44:21.637Z,94.02
2023-09-08T01:49:29.442Z,94.30
2023-09-08T01:54:37.196Z,94.90
2023-09-08T01:59:45.939Z,95.34
2023-09-08T02:04:54.094Z,95.16
2023-09-08T02:10:01.883Z,95.68
2023-09-08T02:15:13.013Z,94.77
2023-09-08T02:20:21.758Z,95.07
2023-09-08T02:25:29.467Z,94.45
2023-09-08T02:30:38.209Z,94.38
2023-09-08T02:35:46.060Z,94.38
2023-09-08T02:40:54.131Z,95.06
2023-09-08T02:46:02.042Z,95.11
2023-09-08T02:51:10.475Z,95.16
2023-09-08T02:56:18.206Z,94.90
2023-09-08T03:01:26.060Z,94.87
2023-09-08T03:06:33.770Z,94.97
2023-09-08T03:11:41.542Z,94.92
2023-09-08T03:16:49.325Z,95.21
2023-09-08T03:21:57.524Z,94.91
2023-09-08T03:27:05.727Z,94.73
2023-09-08T03:32:13.699Z,94.54
2023-09-08T03:37:21.582Z,94.31
2023-09-08T03:42:29.321Z,94.28
2023-09-08T03:47:37.173Z,95.53
2023-09-08T03:52:45.200Z,98.17
2023-09-08T03:57:52.897Z,99.74
2023-09-08T04:03:00.923Z,100.00
2023-09-08T04:08:09.406Z,100.00
2023-09-08T04:13:17.173Z,99.91
2023-09-08T04:18:24.982Z,99.77
2023-09-08T04:23:33.307Z,98.71
2023-09-08T04:28:41.336Z,98.53
2023-09-08T04:33:49.154Z,98.30
2023-09-08T04:38:57.165Z,99.07
2023-09-08T04:44:05.026Z,99.76
2023-09-08T04:49:13.122Z,98.66
2023-09-08T04:54:22.380Z,98.63
2023-09-08T04:59:30.135Z,98.69
2023-09-08T05:04:37.848Z,98.52
2023-09-08T05:09:45.964Z,97.96
2023-09-08T05:14:57.748Z,97.77
2023-09-08T05:20:05.922Z,97.67
2023-09-08T05:25:14.186Z,97.11
2023-09-08T05:30:21.973Z,96.84
2023-09-08T05:35:29.729Z,96.63
2023-09-08T05:40:37.967Z,96.27
2023-09-08T05:45:45.690Z,95.46
2023-09-08T05:50:53.500Z,94.10
2023-09-08T05:56:01.350Z,93.10
2023-09-08T06:01:10.165Z,92.90
2023-09-08T06:06:17.865Z,92.43
2023-09-08T06:11:25.579Z,92.14
2023-09-08T06:16:33.326Z,90.54
2023-09-08T06:21:41.128Z,89.86
2023-09-08T06:26:51.140Z,89.03
2023-09-08T06:31:58.979Z,88.56
2023-09-08T06:37:07.117Z,87.61
2023-09-08T06:42:14.807Z,86.25
2023-09-08T06:47:22.617Z,85.64
2023-09-08T06:52:30.377Z,84.61
2023-09-08T06:57:38.105Z,82.98
2023-09-08T07:02:46.069Z,82.10
2023-09-08T07:07:53.906Z,82.08
2023-09-08T07:13:01.983Z,80.73
2023-09-08T07:18:10.248Z,77.50
2023-09-08T07:23:18.288Z,77.39
2023-09-08T07:28:26.123Z,74.89
2023-09-08T07:33:34.017Z,72.09
2023-09-08T07:38:41.827Z,70.36
2023-09-08T07:43:49.749Z,68.54
2023-09-08T07:48:57.844Z,65.58
2023-09-08T07:54:05.779Z,64.20
2023-09-08T07:59:13.684Z,63.66
2023-09-08T08:04:21.595Z,61.50
2023-09-08T08:09:29.394Z,60.10
2023-09-08T08:14:37.653Z,59.18
2023-09-08T08:19:45.347Z,57.70
2023-09-08T08:24:53.236Z,58.05
2023-09-08T08:30:02.466Z,57.22
2023-09-08T08:35:11.244Z,56.50
2023-09-08T08:40:19.139Z,56.59
2023-09-08T08:45:28.586Z,56.62
2023-09-08T08:50:38.158Z,56.95
2023-09-08T08:55:46.970Z,54.93
2023-09-08T09:00:56.435Z,55.06
2023-09-08T09:06:05.143Z,56.02
2023-09-08T09:11:13.320Z,55.85
2023-09-08T09:16:21.474Z,57.05
2023-09-08T09:21:47.435Z,58.97
2023-09-08T09:26:58.039Z,58.01
2023-09-08T09:32:09.311Z,61.14
2023-09-08T09:37:17.102Z,58.84
2023-09-08T09:42:25.278Z,57.67
2023-09-08T09:47:33.288Z,56.42
2023-09-08T09:52:42.468Z,55.84
2023-09-08T09:57:52.586Z,53.33
2023-09-08T10:03:01.200Z,51.04
2023-09-08T10:08:09.788Z,50.70
2023-09-08T10:13:24.052Z,47.85
2023-09-08T10:18:36.048Z,49.36
2023-09-08T10:23:45.956Z,45.35
2023-09-08T10:28:57.034Z,44.15
2023-09-08T10:34:05.873Z,43.89
2023-09-08T10:39:36.983Z,42.05
2023-09-08T10:44:45.577Z,41.90
2023-09-08T10:49:58.822Z,40.35
2023-09-08T10:55:09.182Z,40.67
2023-09-08T11:00:21.817Z,39.35
2023-09-08T11:05:29.702Z,38.85
2023-09-08T11:10:38.887Z,38.55
2023-09-08T11:15:46.622Z,38.19
2023-09-08T11:20:56.945Z,38.07
2023-09-08T11:26:05.568Z,37.99
2023-09-08T11:31:14.991Z,37.47
2023-09-08T11:36:22.840Z,37.78
2023-09-08T11:41:31.753Z,36.45
2023-09-08T11:46:39.960Z,36.72
2023-09-08T11:51:48.200Z,35.99
2023-09-08T11:56:56.333Z,35.24
2023-09-08T12:02:04.458Z,33.96
2023-09-08T12:07:17.464Z,35.28
2023-09-08T12:12:25.287Z,34.81
2023-09-08T12:17:33.109Z,33.83
2023-09-08T12:22:49.220Z,33.55
2023-09-08T12:27:57.343Z,33.26
2023-09-08T12:33:06.512Z,33.77
2023-09-08T12:38:15.328Z,33.69
2023-09-08T12:43:27.293Z,33.71
2023-09-08T12:48:36.570Z,33.80
2023-09-08T12:53:44.395Z,33.93
2023-09-08T12:58:52.147Z,33.67
2023-09-08T13:04:00.520Z,33.94
2023-09-08T13:09:09.612Z,34.87
2023-09-08T13:14:17.335Z,34.35
2023-09-08T13:19:25.140Z,34.22
2023-09-08T13:24:33.162Z,33.78
2023-09-08T13:29:41.495Z,33.93
2023-09-08T13:34:49.555Z,34.28
2023-09-08T13:39:57.525Z,35.02
2023-09-08T13:45:06.263Z,34.01
2023-09-08T13:50:14.684Z,33.67
2023-09-08T13:55:36.725Z,33.52
2023-09-08T14:00:47.165Z,33.51
2023-09-08T14:06:02.750Z,34.24
2023-09-08T14:11:15.799Z,34.30
2023-09-08T14:16:32.901Z,34.66
2023-09-08T14:21:41.211Z,35.33
2023-09-08T14:26:49.046Z,35.90
2023-09-08T14:31:56.858Z,36.71
2023-09-08T14:37:05.743Z,36.56
2023-09-08T14:42:15.427Z,36.44
2023-09-08T14:47:23.240Z,37.38
2023-09-08T14:52:30.965Z,38.59
2023-09-08T14:57:38.938Z,38.25
2023-09-08T15:02:47.474Z,37.95
2023-09-08T15:07:55.290Z,37.89
2023-09-08T15:13:03.277Z,38.85
2023-09-08T15:18:11.154Z,39.56
2023-09-08T15:23:19.005Z,40.51
2023-09-08T15:28:27.310Z,41.00
2023-09-08T15:33:35.397Z,42.51
2023-09-08T15:38:43.540Z,43.13
2023-09-08T15:43:53.334Z,44.36
2023-09-08T15:49:01.182Z,44.27
2023-09-08T15:54:09.470Z,44.84
2023-09-08T15:59:18.201Z,46.49
2023-09-08T16:04:26.196Z,47.05
2023-09-08T16:09:34.013Z,48.07
2023-09-08T16:14:41.779Z,50.19
2023-09-08T16:19:49.659Z,53.90
2023-09-08T16:24:57.388Z,57.84
2023-09-08T16:30:05.837Z,61.00
2023-09-08T16:35:13.710Z,63.62
2023-09-08T16:40:23.534Z,65.35
2023-09-08T16:45:31.425Z,66.67
2023-09-08T16:50:39.219Z,67.65
2023-09-08T16:55:47.054Z,69.57
2023-09-08T17:00:54.819Z,70.60
2023-09-08T17:06:02.725Z,70.90
2023-09-08T17:11:11.576Z,72.27
2023-09-08T17:16:19.352Z,74.07
2023-09-08T17:21:28.879Z,74.85
2023-09-08T17:26:36.635Z,75.24
2023-09-08T17:31:44.709Z,76.11
2023-09-08T17:36:56.979Z,76.12
2023-09-08T17:42:04.997Z,76.73
2023-09-08T17:47:12.751Z,77.43
2023-09-08T17:52:20.645Z,77.85
2023-09-08T17:57:28.444Z,77.89
2023-09-08T18:02:36.786Z,78.53
2023-09-08T18:07:46.121Z,79.14
2023-09-08T18:12:53.997Z,79.66
2023-09-08T18:18:02.052Z,79.94
2023-09-08T18:23:10.163Z,80.77
2023-09-08T18:28:19.034Z,81.60
2023-09-08T18:33:27.161Z,82.97
2023-09-08T18:38:35.670Z,82.67
2023-09-08T18:43:43.411Z,82.51
2023-09-08T18:48:51.291Z,82.66
2023-09-08T18:53:59.035Z,83.25
2023-09-08T18:59:07.130Z,83.66
2023-09-08T19:04:15.235Z,83.26
2023-09-08T19:09:23.343Z,83.30
2023-09-08T19:14:31.388Z,84.52
2023-09-08T19:19:39.094Z,84.94
2023-09-08T19:24:48.934Z,85.17
2023-09-08T19:29:56.920Z,84.65
2023-09-08T19:35:04.872Z,85.06
2023-09-08T19:40:13.247Z,85.89
2023-09-08T19:45:21.826Z,86.24
2023-09-08T19:50:29.778Z,86.10
2023-09-08T19:55:38.478Z,86.28
2023-09-08T20:00:46.168Z,86.30
2023-09-08T20:05:55.030Z,86.95
2023-09-08T20:11:04.108Z,86.30
2023-09-08T20:16:12.162Z,85.70
2023-09-08T20:21:19.988Z,85.60
2023-09-08T20:26:27.808Z,86.18
2023-09-08T20:31:35.518Z,86.91
2023-09-08T20:36:43.239Z,87.15
2023-09-08T20:41:51.061Z,87.66
2023-09-08T20:46:59.191Z,87.80
2023-09-08T20:52:12.839Z,88.15
2023-09-08T20:57:20.656Z,88.09
2023-09-08T21:02:28.453Z,88.03
2023-09-08T21:07:36.162Z,88.53
2023-09-08T21:12:43.899Z,88.96
2023-09-08T21:17:51.741Z,89.29
2023-09-08T21:23:02.908Z,89.51
2023-09-08T21:28:10.801Z,89.92
2023-09-08T21:33:21.830Z,90.28
2023-09-08T21:38:29.737Z,90.39
2023-09-08T21:43:38.021Z,90.15
2023-09-08T21:48:46.105Z,90.51
2023-09-08T21:53:53.983Z,91.13
2023-09-08T21:59:01.743Z,91.19
2023-09-08T22:04:10.248Z,91.02
2023-09-08T22:09:19.966Z,91.13
2023-09-08T22:14:28.701Z,90.76
2023-09-08T22:19:36.449Z,91.69
2023-09-08T22:24:44.176Z,91.07
2023-09-08T22:29:51.929Z,91.86
2023-09-08T22:34:59.797Z,91.82
2023-09-08T22:40:10.406Z,92.06
2023-09-08T22:45:18.535Z,91.15
2023-09-08T22:50:27.419Z,91.36
2023-09-08T22:55:35.255Z,92.53
2023-09-08T23:00:43.139Z,92.76
2023-09-08T23:05:51.400Z,93.08
2023-09-08T23:10:59.108Z,93.61
2023-09-08T23:16:07.201Z,94.32
2023-09-08T23:21:14.973Z,94.77
2023-09-08T23:26:22.907Z,94.92
2023-09-08T23:31:30.657Z,97.01
2023-09-08T23:36:38.412Z,97.05
2023-09-08T23:41:47.324Z,97.69
2023-09-08T23:46:55.219Z,97.69
2023-09-08T23:52:03.125Z,97.54
2023-09-08T23:57:10.904Z,98.00
